Time;durP1;ratioP1;P1;durP2;ratioP2;P2;SDS_P1;SDS_P2;PMS_P1;PMS_P2;Temp;Humidity;BMP_temperature;BMP_pressure;BME280_temperature;BME280_humidity;BME280_pressure;Samples;Min_cycle;Max_cycle;Signal;HPM_P1;HPM_P2
2024/01/28 00:01:52;;;;;;;15.93;3.08;;;;;;;5.74;100.00;101498.94;4934106;29;20042;-92
2024/01/28 00:04:17;;;;;;;13.48;2.83;;;;;;;5.80;100.00;101497.97;4935548;29;20035;-93
2024/01/28 00:06:42;;;;;;;19.38;2.97;;;;;;;5.87;100.00;101502.09;4933980;29;20035;-92
2024/01/28 00:09:08;;;;;;;13.25;3.33;;;;;;;5.85;100.00;101503.00;4933989;29;20031;-92
2024/01/28 00:11:33;;;;;;;16.17;2.67;;;;;;;5.85;100.00;101500.44;4935328;29;20040;-92
2024/01/28 00:13:58;;;;;;;15.60;5.35;;;;;;;5.84;100.00;101496.19;4934003;29;20602;-92
2024/01/28 00:16:24;;;;;;;11.15;2.88;;;;;;;5.86;100.00;101492.72;4935361;29;20118;-92
2024/01/28 00:18:49;;;;;;;13.60;2.88;;;;;;;5.88;100.00;101485.84;4934022;29;20024;-92
2024/01/28 00:21:14;;;;;;;8.80;1.98;;;;;;;5.95;100.00;101476.34;4935165;29;20383;-92
2024/01/28 00:23:40;;;;;;;10.88;3.08;;;;;;;5.95;100.00;101472.06;4934970;29;20064;-91
2024/01/28 00:26:07;;;;;;;11.43;2.72;;;;;;;5.97;100.00;101464.34;4935028;29;20475;-92
2024/01/28 00:28:32;;;;;;;13.98;2.83;;;;;;;5.91;100.00;101464.44;4933990;29;20034;-92
2024/01/28 00:30:57;;;;;;;21.73;3.30;;;;;;;5.91;100.00;101462.72;4935162;29;20019;-92
2024/01/28 00:33:23;;;;;;;14.10;2.67;;;;;;;5.89;100.00;101461.91;4934929;29;20390;-92
2024/01/28 00:35:48;;;;;;;14.45;3.17;;;;;;;5.92;100.00;101461.00;4934905;29;20046;-93
2024/01/28 00:38:13;;;;;;;14.82;3.85;;;;;;;6.07;100.00;101459.84;4934882;29;20075;-92
2024/01/28 00:40:39;;;;;;;18.42;3.30;;;;;;;5.98;100.00;101445.53;4934992;29;20024;-92
2024/01/28 00:43:04;;;;;;;13.52;2.10;;;;;;;5.99;100.00;101442.94;4934756;29;20523;-92
2024/01/28 00:45:31;;;;;;;14.65;2.60;;;;;;;5.92;100.00;101449.03;4934858;29;20090;-91
2024/01/28 00:47:57;;;;;;;15.00;3.45;;;;;;;6.00;100.00;101439.50;4934796;29;20032;-92
2024/01/28 00:50:22;;;;;;;12.55;3.03;;;;;;;5.91;100.00;101434.53;4934726;29;20110;-92
2024/01/28 00:52:48;;;;;;;16.17;3.53;;;;;;;5.90;100.00;101430.31;4934867;29;20059;-92
2024/01/28 00:55:14;;;;;;;13.80;2.65;;;;;;;5.85;100.00;101429.53;4934630;29;20024;-91
2024/01/28 00:57:40;;;;;;;15.55;2.42;;;;;;;5.83;100.00;101433.88;4937131;29;20028;-92
2024/01/28 01:00:06;;;;;;;12.93;2.75;;;;;;;5.93;100.00;101432.78;4938581;29;20107;-92
2024/01/28 01:02:32;;;;;;;19.50;2.78;;;;;;;5.90;100.00;101425.19;4938838;29;20027;-92
2024/01/28 01:04:57;;;;;;;12.27;2.28;;;;;;;5.85;100.00;101424.41;4938932;29;20458;-92
2024/01/28 01:07:23;;;;;;;14.90;2.67;;;;;;;5.85;100.00;101424.41;4938562;29;20078;-91
2024/01/28 01:09:48;;;;;;;10.20;2.28;;;;;;;5.93;100.00;101408.91;4938426;29;20118;-92
2024/01/28 01:12:15;;;;;;;12.73;2.80;;;;;;;5.83;100.00;101417.63;4938427;29;20470;-93
2024/01/28 01:14:40;;;;;;;13.90;2.80;;;;;;;5.81;100.00;101420.25;4938487;29;20023;-92
2024/01/28 01:17:06;;;;;;;14.80;2.85;;;;;;;5.93;100.00;101417.41;4938445;29;20497;-92
2024/01/28 01:19:31;;;;;;;10.02;2.40;;;;;;;5.91;100.00;101403.78;4938353;29;20082;-92
2024/01/28 01:21:58;;;;;;;6.57;2.22;;;;;;;5.95;100.00;101400.31;4938373;29;20042;-92
2024/01/28 01:24:24;;;;;;;18.23;6.53;;;;;;;5.91;100.00;101398.66;4937974;29;20032;-92
2024/01/28 01:26:51;;;;;;;13.48;2.92;;;;;;;5.94;100.00;101402.91;4938095;29;20493;-92
2024/01/28 01:29:16;;;;;;;8.88;1.70;;;;;;;5.92;100.00;101394.38;4938107;29;20028;-93
2024/01/28 01:31:41;;;;;;;15.77;2.47;;;;;;;5.89;100.00;101400.41;4938140;29;20034;-92
2024/01/28 01:34:07;;;;;;;11.10;2.10;;;;;;;5.86;100.00;101395.38;4938073;29;20051;-91
2024/01/28 01:36:32;;;;;;;11.57;2.17;;;;;;;5.83;100.00;101395.44;4937972;29;20395;-93
2024/01/28 01:38:57;;;;;;;17.15;2.58;;;;;;;5.74;100.00;101376.00;4937929;29;20110;-92
2024/01/28 01:41:25;;;;;;;14.98;2.45;;;;;;;5.77;100.00;101375.91;4937922;29;20040;-92
2024/01/28 01:43:50;;;;;;;11.13;2.38;;;;;;;5.78;100.00;101379.34;4936755;29;20027;-92
2024/01/28 01:46:16;;;;;;;9.68;2.10;;;;;;;5.76;100.00;101376.81;4936673;29;20131;-93
2024/01/28 01:48:41;;;;;;;12.25;2.05;;;;;;;5.69;100.00;101372.69;4936765;29;20027;-92
2024/01/28 01:51:07;;;;;;;6.75;2.40;;;;;;;5.61;100.00;101366.03;4937899;29;20474;-92
2024/01/28 01:53:34;;;;;;;13.05;2.67;;;;;;;5.57;100.00;101358.44;4936520;29;20067;-92
2024/01/28 01:56:01;;;;;;;11.30;2.78;;;;;;;5.55;100.00;101349.94;4937770;29;20038;-91
2024/01/28 01:58:27;;;;;;;13.95;3.08;;;;;;;5.59;100.00;101350.72;4937430;29;20024;-92
2024/01/28 02:00:55;;;;;;;9.25;2.13;;;;;;;5.54;100.00;101342.31;4937607;29;20035;-92
2024/01/28 02:03:20;;;;;;;7.25;2.05;;;;;;;5.56;100.00;101345.69;4936278;29;20130;-92
2024/01/28 02:05:45;;;;;;;10.73;2.45;;;;;;;5.63;100.00;101328.44;4937348;29;20020;-93
2024/01/28 02:08:11;;;;;;;10.00;2.75;;;;;;;5.57;100.00;101330.25;4937050;29;20039;-92
2024/01/28 02:10:36;;;;;;;9.38;2.15;;;;;;;5.53;100.00;101333.75;4937402;29;20019;-92
2024/01/28 02:13:02;;;;;;;12.57;3.78;;;;;;;5.48;100.00;101337.31;4936169;29;20201;-92
2024/01/28 02:15:27;;;;;;;6.63;2.20;;;;;;;5.44;100.00;101336.53;4937258;29;20032;-93
2024/01/28 02:17:53;;;;;;;12.45;2.85;;;;;;;5.43;100.00;101332.28;4936057;29;20036;-92
2024/01/28 02:20:19;;;;;;;5.38;2.10;;;;;;;5.40;100.00;101334.91;4937441;29;20024;-92
2024/01/28 02:22:44;;;;;;;20.48;3.83;;;;;;;5.38;100.00;101328.16;4937121;29;20030;-93
2024/01/28 02:25:10;;;;;;;11.50;2.85;;;;;;;5.39;100.00;101323.00;4937153;29;20032;-92
2024/01/28 02:27:37;;;;;;;8.00;2.53;;;;;;;5.39;100.00;101324.69;4937284;29;20031;-93
2024/01/28 02:30:04;;;;;;;13.25;2.40;;;;;;;5.39;100.00;101322.13;4935895;29;20391;-91
2024/01/28 02:32:29;;;;;;;8.65;2.63;;;;;;;5.33;100.00;101323.13;4936683;29;20031;-91
2024/01/28 02:34:54;;;;;;;13.60;3.00;;;;;;;5.26;100.00;101322.41;4936981;29;20027;-91
2024/01/28 02:37:20;;;;;;;8.48;3.17;;;;;;;5.24;100.00;101313.94;4936786;29;20055;-92
2024/01/28 02:39:45;;;;;;;7.03;2.22;;;;;;;5.22;100.00;101325.06;4935925;29;20030;-92
2024/01/28 02:42:11;;;;;;;14.15;2.22;;;;;;;5.20;100.00;101319.16;4934968;29;20122;-91
2024/01/28 02:44:36;;;;;;;6.28;2.38;;;;;;;5.21;100.00;101319.09;4936644;29;20051;-92
2024/01/28 02:47:01;;;;;;;10.05;2.47;;;;;;;5.19;100.00;101314.88;4936432;29;20118;-93
2024/01/28 02:49:27;;;;;;;10.68;1.90;;;;;;;5.24;100.00;101313.06;4936786;29;20055;-93
2024/01/28 02:51:53;;;;;;;9.50;2.55;;;;;;;5.23;100.00;101307.13;4936910;29;20024;-92
2024/01/28 02:54:19;;;;;;;9.90;2.50;;;;;;;5.27;100.00;101300.22;4936629;29;20028;-93
2024/01/28 02:56:44;;;;;;;9.00;2.60;;;;;;;5.18;100.00;101288.47;4936610;29;20024;-93
2024/01/28 02:59:10;;;;;;;9.13;1.80;;;;;;;5.16;100.00;101287.66;4936343;29;20035;-92
2024/01/28 03:01:48;;;;;;;10.88;2.47;;;;;;;5.09;100.00;101284.38;4936510;29;20031;-92
2024/01/28 03:04:14;;;;;;;12.00;2.55;;;;;;;5.02;100.00;101274.31;4936660;29;20027;-93
2024/01/28 03:06:40;;;;;;;14.48;2.70;;;;;;;4.97;100.00;101269.28;4936377;29;20039;-93
2024/01/28 03:09:05;;;;;;;10.10;2.42;;;;;;;5.01;100.00;101265.78;4936438;29;20024;-92
2024/01/28 03:11:31;;;;;;;8.43;2.45;;;;;;;5.04;100.00;101255.47;4951087;29;20047;-93
2024/01/28 03:13:56;;;;;;;14.27;2.72;;;;;;;4.98;100.00;101265.03;4935144;29;20115;-93
2024/01/28 03:16:22;;;;;;;12.05;2.47;;;;;;;4.97;100.00;101259.03;4936494;29;20042;-93
2024/01/28 03:18:47;;;;;;;10.60;2.58;;;;;;;4.97;100.00;101258.22;4936478;29;20055;-93
2024/01/28 03:21:13;;;;;;;6.57;2.03;;;;;;;4.91;100.00;101265.13;4933975;29;20570;-92
2024/01/28 03:23:38;;;;;;;7.15;1.92;;;;;;;4.84;100.00;101265.31;4936133;29;20055;-92
2024/01/28 03:26:03;;;;;;;10.27;2.50;;;;;;;4.77;100.00;101261.19;4936011;29;20031;-93
2024/01/28 03:28:29;;;;;;;15.52;2.95;;;;;;;4.90;100.00;101248.13;4936205;29;20020;-93
2024/01/28 03:30:54;;;;;;;10.07;2.83;;;;;;;4.96;100.00;101249.69;4936111;29;20023;-92
2024/01/28 03:33:20;;;;;;;14.32;2.60;;;;;;;5.02;100.00;101252.09;4936169;29;20463;-93
2024/01/28 03:35:45;;;;;;;14.38;2.65;;;;;;;5.09;100.00;101242.59;4936047;29;20032;-92
2024/01/28 03:38:11;;;;;;;12.48;2.63;;;;;;;5.08;100.00;101235.81;4936088;29;20533;-92
2024/01/28 03:40:36;;;;;;;9.68;2.50;;;;;;;5.17;100.00;101239.88;4935934;29;20368;-92
2024/01/28 03:43:01;;;;;;;9.65;2.60;;;;;;;5.06;100.00;101228.16;4935853;29;20062;-93
2024/01/28 03:45:27;;;;;;;9.98;2.63;;;;;;;5.15;100.00;101230.50;4935630;29;20024;-93
2024/01/28 03:47:52;;;;;;;13.07;3.15;;;;;;;5.18;100.00;101221.09;4935870;29;20020;-94
2024/01/28 03:50:19;;;;;;;12.30;3.10;;;;;;;5.15;100.00;101215.16;4935890;29;20052;-92
2024/01/28 03:52:45;;;;;;;7.20;2.05;;;;;;;5.07;100.00;101216.19;4935731;29;20035;-93
2024/01/28 03:55:11;;;;;;;9.68;2.92;;;;;;;5.01;100.00;101209.50;4935570;29;20023;-92
2024/01/28 03:57:39;;;;;;;12.30;2.85;;;;;;;5.00;100.00;101199.28;4935520;29;20086;-93
2024/01/28 04:00:06;;;;;;;10.23;2.90;;;;;;;4.99;100.00;101195.06;4935541;29;20039;-91
2024/01/28 04:02:31;;;;;;;8.98;2.50;;;;;;;4.91;100.00;101198.63;4935444;29;20082;-93
2024/01/28 04:04:57;;;;;;;18.63;3.83;;;;;;;4.88;100.00;101197.88;4935336;29;20397;-92
2024/01/28 04:07:22;;;;;;;10.75;2.70;;;;;;;4.83;100.00;101203.09;4935142;29;20039;-92
2024/01/28 04:09:49;;;;;;;9.32;2.42;;;;;;;4.81;100.00;101193.75;4935532;29;20460;-92
2024/01/28 04:12:14;;;;;;;13.23;3.17;;;;;;;4.86;100.00;101191.94;4935369;29;20028;-92
2024/01/28 04:14:39;;;;;;;13.50;3.90;;;;;;;4.80;100.00;101192.06;4935287;29;20055;-93
2024/01/28 04:17:06;;;;;;;10.32;3.38;;;;;;;4.77;100.00;101189.56;4935122;29;20046;-92
2024/01/28 04:19:31;;;;;;;14.52;2.97;;;;;;;4.71;100.00;101196.50;4935229;29;20032;-92
2024/01/28 04:21:56;;;;;;;9.93;2.70;;;;;;;4.69;100.00;101182.91;4935282;29;20028;-92
2024/01/28 04:24:22;;;;;;;9.27;2.50;;;;;;;4.76;100.00;101185.34;4935111;29;20397;-92
2024/01/28 04:26:47;;;;;;;9.50;3.15;;;;;;;4.74;100.00;101194.75;4934973;29;20031;-92
2024/01/28 04:29:12;;;;;;;9.95;2.88;;;;;;;4.78;100.00;101178.47;4934988;29;20038;-93
2024/01/28 04:31:42;;;;;;;11.77;2.67;;;;;;;4.91;100.00;101167.09;4934978;29;20054;-91
2024/01/28 04:34:08;;;;;;;9.32;2.72;;;;;;;4.86;100.00;101163.81;4934906;29;20024;-92
2024/01/28 04:36:33;;;;;;;13.38;2.88;;;;;;;4.91;100.00;101161.97;4933611;29;20535;-92
2024/01/28 04:38:59;;;;;;;12.43;4.70;;;;;;;4.89;100.00;101156.06;4935071;29;20039;-92
2024/01/28 04:41:24;;;;;;;21.02;4.63;;;;;;;4.87;100.00;101160.34;4933806;29;20028;-92
2024/01/28 04:43:50;;;;;;;14.52;3.33;;;;;;;4.89;100.00;101145.81;4935227;29;20035;-92
2024/01/28 04:46:18;;;;;;;12.35;3.05;;;;;;;4.88;100.00;101136.47;4934887;29;20497;-92
2024/01/28 04:48:44;;;;;;;9.98;2.85;;;;;;;4.83;100.00;101122.94;4934828;29;20027;-91
2024/01/28 04:51:10;;;;;;;13.45;2.80;;;;;;;4.91;100.00;101129.56;4934848;29;20103;-92
2024/01/28 04:53:36;;;;;;;14.13;2.47;;;;;;;4.89;100.00;101122.81;4934646;29;20031;-93
2024/01/28 04:56:01;;;;;;;9.25;2.72;;;;;;;4.74;100.00;101112.94;4934728;29;20410;-92
2024/01/28 04:58:27;;;;;;;13.98;2.90;;;;;;;4.80;100.00;101117.88;4934776;29;20099;-92
2024/01/28 05:00:54;;;;;;;10.02;2.53;;;;;;;4.76;100.00;101119.69;4934866;29;20443;-92
2024/01/28 05:03:19;;;;;;;14.68;3.28;;;;;;;4.67;100.00;101118.16;4934925;29;20054;-92
2024/01/28 05:05:45;;;;;;;5.78;2.80;;;;;;;4.62;100.00;101114.88;4934467;29;20145;-93
2024/01/28 05:08:10;;;;;;;8.88;2.75;;;;;;;4.75;100.00;101119.72;4934806;29;20035;-92
2024/01/28 05:10:36;;;;;;;11.57;3.70;;;;;;;4.73;100.00;101117.22;4934845;29;20012;-93
2024/01/28 05:13:01;;;;;;;13.38;3.08;;;;;;;4.77;100.00;101112.84;4934696;29;20024;-93
2024/01/28 05:15:26;;;;;;;14.70;3.50;;;;;;;4.74;100.00;101102.69;4934711;29;20037;-93
2024/01/28 05:17:52;;;;;;;6.20;2.40;;;;;;;4.83;100.00;101102.47;4934560;29;20027;-92
2024/01/28 05:20:17;;;;;;;9.23;2.78;;;;;;;4.79;100.00;101095.75;4934663;29;20020;-93
2024/01/28 05:22:43;;;;;;;7.82;2.88;;;;;;;4.82;100.00;101100.81;4934517;29;20024;-92
2024/01/28 05:25:09;;;;;;;12.95;3.05;;;;;;;4.84;100.00;101093.94;4933279;29;20052;-92
2024/01/28 05:27:36;;;;;;;5.43;2.45;;;;;;;4.84;100.00;101093.94;4934364;29;20043;-91
2024/01/28 05:30:03;;;;;;;7.28;2.55;;;;;;;4.77;100.00;101105.19;4934924;29;20036;-93
2024/01/28 05:32:29;;;;;;;8.52;3.05;;;;;;;4.68;100.00;101107.09;4932995;29;20027;-92
2024/01/28 05:34:56;;;;;;;10.02;2.65;;;;;;;4.63;100.00;101093.56;4933313;29;20418;-93
2024/01/28 05:37:21;;;;;;;8.70;2.38;;;;;;;4.65;100.00;101094.34;4932942;29;20038;-92
2024/01/28 05:39:47;;;;;;;5.20;1.95;;;;;;;4.60;100.00;101093.59;4934744;29;20020;-91
2024/01/28 05:42:12;;;;;;;8.75;2.03;;;;;;;4.76;100.00;101080.50;4934372;29;20032;-92
2024/01/28 05:44:37;;;;;;;7.50;2.45;;;;;;;4.78;100.00;101084.69;4937472;29;20501;-92
2024/01/28 05:47:03;;;;;;;11.35;2.13;;;;;;;4.74;100.00;101079.69;4952405;29;20031;-92
2024/01/28 05:49:29;;;;;;;10.55;3.17;;;;;;;4.75;100.00;101079.63;4937947;29;20053;-93
2024/01/28 05:51:54;;;;;;;8.63;2.20;;;;;;;4.74;100.00;101082.25;4936534;29;20067;-92
2024/01/28 05:54:20;;;;;;;7.75;2.35;;;;;;;4.72;100.00;101080.53;4952543;29;20039;-93
2024/01/28 05:56:45;;;;;;;4.72;2.00;;;;;;;4.63;100.00;101065.44;4937644;29;20510;-92
2024/01/28 05:59:10;;;;;;;7.05;2.28;;;;;;;4.54;100.00;101073.31;4937620;29;20032;-93
2024/01/28 06:01:36;;;;;;;9.57;2.50;;;;;;;4.56;100.00;101066.44;4952267;29;20059;-93
2024/01/28 06:04:01;;;;;;;5.65;2.47;;;;;;;4.51;100.00;101070.78;4937734;29;20489;-93
2024/01/28 06:06:26;;;;;;;10.77;2.20;;;;;;;4.52;100.00;101071.66;4937429;29;20036;-92
2024/01/28 06:08:52;;;;;;;5.40;1.95;;;;;;;4.44;100.00;101065.00;4937413;29;20028;-93
2024/01/28 06:11:17;;;;;;;11.68;2.67;;;;;;;4.44;100.00;101067.56;4937482;29;20378;-91
2024/01/28 06:13:42;;;;;;;5.53;1.73;;;;;;;4.41;100.00;101075.28;4937129;29;20024;-93
2024/01/28 06:16:08;;;;;;;8.23;2.05;;;;;;;4.32;100.00;101066.97;4937270;29;20032;-93
2024/01/28 06:18:35;;;;;;;6.53;2.33;;;;;;;4.32;100.00;101067.81;4937312;29;20020;-92
2024/01/28 06:21:00;;;;;;;11.27;2.45;;;;;;;4.43;100.00;101067.59;4937232;29;20023;-92
2024/01/28 06:23:26;;;;;;;13.25;2.70;;;;;;;4.46;100.00;101064.94;4937155;29;20517;-92
2024/01/28 06:25:51;;;;;;;8.02;2.58;;;;;;;4.46;100.00;101068.38;4935784;29;20031;-92
2024/01/28 06:28:17;;;;;;;7.30;2.45;;;;;;;4.44;100.00;101065.00;4937107;29;20020;-92
2024/01/28 06:30:42;;;;;;;11.75;2.88;;;;;;;4.43;100.00;101065.03;4937071;29;20050;-92
2024/01/28 06:33:09;;;;;;;5.05;2.22;;;;;;;4.39;100.00;101055.72;4951757;29;20023;-92
2024/01/28 06:35:35;;;;;;;5.10;2.70;;;;;;;4.57;100.00;101067.28;4935674;29;20406;-92
2024/01/28 06:38:00;;;;;;;9.85;2.45;;;;;;;4.67;100.00;101058.53;4937128;29;20020;-92
2024/01/28 06:40:25;;;;;;;10.23;2.35;;;;;;;4.77;100.00;101059.16;4937138;29;20482;-93
2024/01/28 06:42:51;;;;;;;14.88;2.38;;;;;;;4.84;100.00;101058.97;4937042;29;20916;-92
2024/01/28 06:45:17;;;;;;;17.05;3.00;;;;;;;5.02;100.00;101055.13;4937237;29;20378;-92
2024/01/28 06:47:43;;;;;;;10.25;2.40;;;;;;;5.01;100.00;101065.41;4935658;29;20051;-92
2024/01/28 06:50:09;;;;;;;9.45;2.53;;;;;;;4.89;100.00;101056.31;4936890;29;20028;-91
2024/01/28 06:52:34;;;;;;;9.55;2.50;;;;;;;4.95;100.00;101061.28;4936764;29;20027;-92
2024/01/28 06:54:59;;;;;;;9.80;2.95;;;;;;;4.97;100.00;101056.94;4934535;29;20047;-93
2024/01/28 06:57:24;;;;;;;9.23;2.42;;;;;;;5.01;100.00;101055.16;4936600;29;20027;-92
2024/01/28 06:59:50;;;;;;;10.82;2.42;;;;;;;5.07;100.00;101061.00;4936586;29;20118;-92
2024/01/28 07:02:15;;;;;;;11.02;2.55;;;;;;;5.10;100.00;101058.34;4935332;29;20111;-92
2024/01/28 07:04:41;;;;;;;8.35;2.80;;;;;;;5.07;100.00;101061.00;4936590;29;20032;-92
2024/01/28 07:07:06;;;;;;;5.82;2.53;;;;;;;5.06;100.00;101059.28;4936535;29;20063;-92
2024/01/28 07:09:32;;;;;;;7.85;2.40;;;;;;;5.17;100.00;101053.91;4936555;29;20486;-92
2024/01/28 07:11:57;;;;;;;8.55;2.63;;;;;;;5.25;100.00;101053.72;4951094;29;20027;-92
2024/01/28 07:14:23;;;;;;;13.07;3.05;;;;;;;5.25;100.00;101049.44;4936355;29;20478;-93
2024/01/28 07:16:49;;;;;;;9.32;2.25;;;;;;;5.18;100.00;101047.91;4936394;29;20036;-92
2024/01/28 07:19:15;;;;;;;10.20;2.75;;;;;;;5.14;100.00;101052.28;4936352;29;20447;-92
2024/01/28 07:21:40;;;;;;;7.68;3.15;;;;;;;5.16;100.00;101042.00;4936128;29;20054;-91
2024/01/28 07:24:06;;;;;;;7.15;1.95;;;;;;;5.24;100.00;101041.78;4936215;29;20099;-92
2024/01/28 07:26:31;;;;;;;13.60;2.63;;;;;;;5.18;100.00;101042.78;4936009;29;20505;-92
2024/01/28 07:28:57;;;;;;;12.90;3.35;;;;;;;5.23;100.00;101029.88;4936078;29;20363;-92
2024/01/28 07:31:22;;;;;;;4.00;1.80;;;;;;;5.28;100.00;101018.63;4936112;29;20036;-91
2024/01/28 07:33:48;;;;;;;12.02;2.35;;;;;;;5.22;100.00;101015.38;4936000;29;20032;-92
2024/01/28 07:36:15;;;;;;;7.10;2.72;;;;;;;5.20;100.00;101012.06;4935823;29;20095;-91
2024/01/28 07:38:41;;;;;;;13.40;2.15;;;;;;;5.24;100.00;101022.19;4935850;29;20082;-91
2024/01/28 07:41:14;;;;;;;10.13;2.40;;;;;;;5.29;100.00;101015.22;4934721;29;20024;-92
2024/01/28 07:43:39;;;;;;;7.70;2.40;;;;;;;5.31;100.00;101017.72;4935735;29;20090;-91
2024/01/28 07:46:04;;;;;;;14.40;2.63;;;;;;;5.24;100.00;101022.19;4935745;29;20486;-92
2024/01/28 07:48:31;;;;;;;6.97;1.90;;;;;;;5.24;100.00;101006.81;4934437;29;20034;-92
2024/01/28 07:50:56;;;;;;;7.65;1.95;;;;;;;5.24;100.00;101011.06;4935546;29;20047;-91
2024/01/28 07:53:21;;;;;;;14.05;3.28;;;;;;;5.28;100.00;101005.84;4934435;29;20083;-91
2024/01/28 07:55:47;;;;;;;12.50;3.17;;;;;;;5.28;100.00;101000.72;4935519;29;20471;-91
2024/01/28 07:58:12;;;;;;;9.77;2.40;;;;;;;5.35;100.00;101003.97;4935452;29;20027;-92
2024/01/28 08:00:37;;;;;;;10.70;2.85;;;;;;;5.28;100.00;101012.69;4935253;29;20035;-92
2024/01/28 08:03:03;;;;;;;12.98;2.75;;;;;;;5.28;100.00;101015.25;4935580;29;20037;-91
2024/01/28 08:05:31;;;;;;;11.13;2.60;;;;;;;5.33;100.00;101021.09;4935185;29;20078;-95
2024/01/28 08:07:56;;;;;;;6.32;2.20;;;;;;;5.29;100.00;101006.69;4933739;29;20027;-93
2024/01/28 08:10:26;;;;;;;7.90;2.17;;;;;;;5.30;100.00;100995.56;4938635;29;20602;-96
2024/01/28 08:12:53;;;;;;;4.35;2.13;;;;;;;5.33;100.00;101000.59;4943039;29;20061;-95
2024/01/28 08:15:24;;;;;;;7.68;2.42;;;;;;;5.32;100.00;100999.78;4947098;29;20409;-96
2024/01/28 08:17:50;;;;;;;7.10;2.10;;;;;;;5.41;100.00;100992.72;4923464;29;20469;-96
2024/01/28 08:20:19;;;;;;;10.40;2.33;;;;;;;5.62;100.00;100987.00;4943809;29;20091;-96
2024/01/28 08:22:44;;;;;;;13.73;2.72;;;;;;;5.55;100.00;100978.66;4942105;29;20102;-96
2024/01/28 08:25:12;;;;;;;9.60;2.45;;;;;;;5.56;100.00;100977.78;4938429;29;20020;-95
2024/01/28 08:27:41;;;;;;;11.43;3.78;;;;;;;5.62;100.00;100997.25;4939910;29;20032;-95
2024/01/28 08:30:11;;;;;;;8.77;2.10;;;;;;;5.58;100.00;100986.28;4944080;29;20027;-95
2024/01/28 08:32:37;;;;;;;10.85;2.25;;;;;;;5.76;100.00;100984.91;4934868;29;20390;-95
2024/01/28 08:35:03;;;;;;;5.70;2.80;;;;;;;5.85;100.00;100988.06;4934623;29;20031;-93
2024/01/28 08:37:28;;;;;;;7.95;1.80;;;;;;;5.78;100.00;100982.31;4934941;29;20031;-92
2024/01/28 08:39:54;;;;;;;7.38;2.00;;;;;;;5.84;100.00;100982.09;4935200;29;20038;-93
2024/01/28 08:42:19;;;;;;;4.45;2.08;;;;;;;5.80;100.00;100970.25;4935212;29;20023;-93
2024/01/28 08:44:48;;;;;;;10.75;2.42;;;;;;;5.86;100.00;100980.34;4933977;29;20030;-91
2024/01/28 08:47:13;;;;;;;8.75;1.92;;;;;;;5.91;100.00;100969.97;4934438;29;20035;-91
2024/01/28 08:49:38;;;;;;;10.25;2.65;;;;;;;5.95;100.00;100975.00;4953285;29;20034;-91
2024/01/28 08:52:04;;;;;;;4.82;2.08;;;;;;;6.02;100.00;100972.22;4951947;29;20402;-91
2024/01/28 08:54:33;;;;;;;8.00;2.40;;;;;;;6.10;100.00;100970.28;4939469;28;20023;-91
2024/01/28 08:56:59;;;;;;;12.15;1.92;;;;;;;6.21;100.00;100963.09;4965298;28;20110;-92
2024/01/28 08:59:24;;;;;;;9.15;2.33;;;;;;;6.18;100.00;100955.50;4934303;29;20119;-92
2024/01/28 09:01:51;;;;;;;9.23;2.83;;;;;;;6.28;100.00;100958.63;4934706;29;20028;-91
2024/01/28 09:04:17;;;;;;;6.28;2.03;;;;;;;6.31;100.00;100961.91;4933355;29;20016;-91
2024/01/28 09:06:43;;;;;;;8.23;2.28;;;;;;;6.37;100.00;100959.19;4932400;29;20581;-92
2024/01/28 09:09:08;;;;;;;9.20;1.90;;;;;;;6.37;100.00;100948.94;4933445;29;20099;-91
2024/01/28 09:11:37;;;;;;;5.47;2.35;;;;;;;6.55;100.00;100954.34;4934211;29;20470;-90
2024/01/28 09:14:04;;;;;;;10.25;1.75;;;;;;;6.54;100.00;100947.56;4934391;29;20058;-91
2024/01/28 09:16:29;;;;;;;7.35;2.20;;;;;;;6.65;100.00;100948.03;4933966;29;20030;-89
2024/01/28 09:18:55;;;;;;;10.45;1.48;;;;;;;6.77;100.00;100947.63;4936845;29;20024;-92
2024/01/28 09:21:20;;;;;;;5.93;2.15;;;;;;;6.72;100.00;100951.22;4938052;29;20028;-93
2024/01/28 09:23:45;;;;;;;9.07;2.03;;;;;;;6.77;100.00;100945.03;4937030;29;20034;-92
2024/01/28 09:26:11;;;;;;;6.03;1.98;;;;;;;6.82;100.00;100952.59;4938033;29;20067;-92
2024/01/28 09:28:37;;;;;;;10.80;2.22;;;;;;;6.81;100.00;100956.06;4937651;29;20031;-92
2024/01/28 09:31:06;;;;;;;7.57;2.00;;;;;;;6.90;100.00;100947.19;4937770;29;20024;-91
2024/01/28 09:33:31;;;;;;;11.15;2.00;;;;;;;7.07;100.00;100942.31;4937883;29;20530;-91
2024/01/28 09:35:57;;;;;;;7.47;2.03;;;;;;;7.11;100.00;100949.03;4937756;29;20118;-92
2024/01/28 09:38:22;;;;;;;5.88;1.70;;;;;;;7.32;100.00;100941.47;4936202;29;20442;-92
2024/01/28 09:40:48;;;;;;;5.43;1.58;;;;;;;7.17;100.00;100948.84;4938009;29;20028;-91
2024/01/28 09:43:29;;;;;;;7.63;2.03;;;;;;;7.25;100.00;100936.56;4936671;29;20126;-93
2024/01/28 09:45:56;;;;;;;4.20;1.80;;;;;;;7.41;100.00;100930.84;4937859;29;20027;-92
2024/01/28 09:48:21;;;;;;;6.50;1.70;;;;;;;7.41;100.00;100936.00;4937641;29;20075;-92
2024/01/28 09:50:47;;;;;;;4.97;1.80;;;;;;;7.84;100.00;100934.41;4937467;29;20031;-92
2024/01/28 09:53:13;;;;;;;3.60;1.25;;;;;;;8.12;100.00;100942.75;4936866;29;20595;-90
2024/01/28 09:55:39;;;;;;;8.07;2.17;;;;;;;8.29;100.00;100951.50;4937663;29;20035;-89
2024/01/28 09:58:05;;;;;;;7.55;1.90;;;;;;;8.49;100.00;100953.34;4937364;29;20185;-91
2024/01/28 10:00:30;;;;;;;7.20;1.80;;;;;;;8.77;100.00;100945.28;4936069;29;20171;-91
2024/01/28 10:02:55;;;;;;;3.85;1.75;;;;;;;9.03;100.00;100949.34;4937127;29;20171;-92
2024/01/28 10:05:21;;;;;;;9.27;2.35;;;;;;;8.89;100.00;100952.50;4937259;29;20031;-89
2024/01/28 10:07:48;;;;;;;8.13;2.10;;;;;;;9.06;100.00;100958.69;4936901;29;20043;-91
2024/01/28 10:10:17;;;;;;;7.47;2.00;;;;;;;9.22;100.00;100964.84;4937235;29;20028;-90
2024/01/28 10:12:49;;;;;;;7.53;1.67;;;;;;;9.32;100.00;100973.84;4937383;29;20502;-89
2024/01/28 10:15:18;;;;;;;;;;;;;;;9.58;100.00;100966.69;4931227;29;20055;-93
2024/01/28 10:17:47;;;;;;;6.57;1.98;;;;;;;10.09;100.00;100978.09;4947358;29;20005;-90
2024/01/28 10:20:17;;;;;;;5.38;2.92;;;;;;;10.48;100.00;100975.44;4956506;29;20102;-90
2024/01/28 10:22:42;;;;;;;4.80;1.75;;;;;;;9.81;100.00;100968.25;4953500;28;20097;-92
2024/01/28 10:25:12;;;;;;;9.27;2.10;;;;;;;9.76;100.00;100970.19;4937135;29;20047;-90
2024/01/28 10:27:37;;;;;;;5.97;2.10;;;;;;;10.43;100.00;100971.38;4937018;29;20053;-89
2024/01/28 10:30:04;;;;;;;18.38;1.88;;;;;;;11.06;100.00;100963.94;4955610;28;20541;-88
2024/01/28 10:32:29;;;;;;;20.13;2.15;;;;;;;11.26;100.00;100969.81;4955978;28;20034;-92
2024/01/28 10:34:54;;;;;;;8.57;1.75;;;;;;;11.76;99.44;100966.34;4956258;28;20020;-89
2024/01/28 10:37:21;;;;;;;6.60;1.67;;;;;;;12.82;93.25;100978.53;4953489;28;20094;-93
2024/01/28 10:39:48;;;;;;;15.30;1.70;;;;;;;12.55;91.68;100975.78;4970759;28;20035;-90
2024/01/28 10:42:19;;;;;;;4.47;1.55;;;;;;;12.77;89.01;100981.41;4955905;28;20438;-89
2024/01/28 10:44:47;;;;;;;4.35;1.42;;;;;;;12.48;92.45;100974.47;4936828;28;20032;-91
2024/01/28 10:47:15;;;;;;;8.68;2.00;;;;;;;11.77;98.36;100962.81;4936727;29;20490;-90
2024/01/28 10:49:43;;;;;;;8.60;1.60;;;;;;;12.32;95.28;100965.00;4935546;29;20036;-91
2024/01/28 10:52:09;;;;;;;5.78;1.25;;;;;;;12.63;91.58;100955.44;4946528;29;20066;-90
2024/01/28 10:54:39;;;;;;;7.22;3.17;;;;;;;13.11;91.04;100957.84;4955481;28;20148;-89
2024/01/28 10:57:05;;;;;;;7.15;1.40;;;;;;;12.31;92.93;100963.31;4955445;28;20059;-91
2024/01/28 10:59:35;;;;;;;6.13;1.33;;;;;;;12.90;89.04;100958.22;4937521;29;20059;-90
2024/01/28 11:02:01;;;;;;;9.55;1.88;;;;;;;12.11;94.79;100951.47;4936434;29;20024;-90
2024/01/28 11:04:26;;;;;;;7.25;2.00;;;;;;;11.92;98.15;100951.66;4936225;29;20027;-89
2024/01/28 11:06:52;;;;;;;8.35;1.60;;;;;;;11.77;100.00;100947.28;4935226;29;20126;-91
2024/01/28 11:09:18;;;;;;;6.55;1.83;;;;;;;11.52;100.00;100950.38;4939001;29;20110;-90
2024/01/28 11:11:43;;;;;;;8.23;2.47;;;;;;;11.23;100.00;100954.47;4955441;28;20034;-92
2024/01/28 11:14:11;;;;;;;10.63;2.20;;;;;;;11.05;100.00;100958.88;4955386;28;20465;-94
2024/01/28 11:16:37;;;;;;;5.95;1.45;;;;;;;11.09;100.00;100957.78;4955732;28;20031;-93